Dades meteomassalio
Diari Summary for Agost 8, 2017 Units:  English    Metric   Both
« Previous Day
Next Day »
Diari Semanal Mensual Anual Personalitzat
  Maxima: Minima: Mijana:
Temperatura: TemperatureC °F 19.3 °F 24.2 °F
Rosada: DewpointC °F 6.3 °F 12.1 °F
Humitat: Humidity % 28 % 49 %
Velocitat del vent: WindSpeedKMH mph 0.0 mph 25.6 mph
Racha vent: WindSpeedGustKMH mph - -
Vent:- - WNW
Pressio: PressurehPa in 1006.3 in -
Pluja: 0.0 in    
Historical Graphs
 
 
Tabular Data for Agost 8, 2017
Time Temperature Dew Point Pressure Wind Wind Speed Wind Gust Humidity Rainfall Rate (Hourly) solar Conditions
TemperatureC °F DewpointC °F PressurehPa in Calm     Humidity % HourlyPrecipMM in SolarRadiationWatts/m^2 W/m2 Conditions
00:00 29.4 °F 18.5 °F 1006.7 in NNE 13.0 mph 13.0 mph 52 % 0.0 in 0.0 W/m2 CLR
00:02 29.3 °F 18.4 °F 1006.7 in NE 13.0 mph 13.0 mph 52 % 0.0 in 0.0 W/m2 CLR
00:07 29.0 °F 18.2 °F 1006.7 in Calm     52 % 0.0 in 0.0 W/m2 CLR
00:12 28.7 °F 17.3 °F 1006.7 in Calm     50 % 0.0 in 0.0 W/m2 CLR
00:17 28.9 °F 17.1 °F 1006.7 in Calm     49 % 0.0 in 0.0 W/m2 CLR
00:27 29.8 °F 17.3 °F 1006.7 in SW 3.7 mph 3.7 mph 47 % 0.0 in 0.0 W/m2 CLR
00:32 30.2 °F 17.3 °F 1006.7 in SW 16.7 mph 16.7 mph 46 % 0.0 in 0.0 W/m2 CLR
00:37 30.6 °F 17.3 °F 1006.7 in South 7.4 mph 7.4 mph 45 % 0.0 in 0.0 W/m2 CLR
00:42 30.9 °F 17.2 °F 1006.7 in SW 14.5 mph 14.5 mph 44 % 0.0 in 0.0 W/m2 CLR
00:47 31.1 °F 17.4 °F 1006.7 in South 5.6 mph 5.6 mph 44 % 0.0 in 0.0 W/m2 CLR
00:52 31.0 °F 17.3 °F 1006.7 in Calm     44 % 0.0 in 0.0 W/m2 CLR
00:57 31.0 °F 17.3 °F 1006.7 in SW 7.4 mph 7.4 mph 44 % 0.0 in 0.0 W/m2 CLR
01:02 30.9 °F 17.3 °F 1006.7 in Calm     44 % 0.0 in 0.0 W/m2 CLR
01:07 30.9 °F 17.2 °F 1006.7 in Calm     44 % 0.0 in 0.0 W/m2 CLR
01:12 30.8 °F 16.8 °F 1006.7 in Calm     43 % 0.0 in 0.0 W/m2 CLR
01:17 30.7 °F 16.7 °F 1006.7 in Calm     43 % 0.0 in 0.0 W/m2 CLR
01:22 30.4 °F 17.2 °F 1006.7 in Calm     45 % 0.0 in 0.0 W/m2 CLR
01:27 30.1 °F 17.2 °F 1006.3 in NE 13.0 mph 13.0 mph 46 % 0.0 in 0.0 W/m2 CLR
01:32 28.9 °F 18.4 °F 1006.3 in NE 13.0 mph 13.0 mph 53 % 0.0 in 0.0 W/m2 CLR
01:37 27.9 °F 18.6 °F 1006.7 in NNE 14.8 mph 14.8 mph 57 % 0.0 in 0.0 W/m2 CLR
01:42 27.4 °F 18.7 °F 1006.7 in North 7.4 mph 7.4 mph 59 % 0.0 in 0.0 W/m2 CLR
01:47 27.3 °F 18.6 °F 1006.7 in NNE 11.1 mph 11.1 mph 59 % 0.0 in 0.0 W/m2 CLR
01:52 27.4 °F 18.4 °F 1006.7 in Calm     58 % 0.0 in 0.0 W/m2 CLR
01:57 27.2 °F 18.8 °F 1006.7 in Calm     60 % 0.0 in 0.0 W/m2 CLR
02:02 27.1 °F 18.7 °F 1006.7 in Calm     60 % 0.0 in 0.0 W/m2 CLR
02:07 26.9 °F 19.2 °F 1006.7 in Calm     63 % 0.0 in 0.0 W/m2 CLR
02:12 26.5 °F 19.4 °F 1007.0 in Calm     65 % 0.0 in 0.0 W/m2 CLR
02:17 26.2 °F 19.4 °F 1007.3 in NNE 9.3 mph 9.3 mph 66 % 0.0 in 0.0 W/m2 CLR
02:22 26.2 °F 19.3 °F 1007.3 in NE 7.4 mph 7.4 mph 66 % 0.0 in 0.0 W/m2 CLR
02:27 26.3 °F 19.7 °F 1007.7 in Calm     67 % 0.0 in 0.0 W/m2 CLR
02:32 26.5 °F 19.6 °F 1007.7 in NW 11.1 mph 11.1 mph 66 % 0.0 in 0.0 W/m2 CLR
02:37 26.8 °F 20.4 °F 1007.7 in NW 18.5 mph 18.5 mph 68 % 0.0 in 0.0 W/m2 CLR
02:42 26.7 °F 20.5 °F 1007.7 in NW 25.9 mph 25.9 mph 69 % 0.0 in 0.0 W/m2 CLR
02:47 26.5 °F 20.6 °F 1007.7 in NW 22.2 mph 22.2 mph 70 % 0.0 in 0.0 W/m2 CLR
02:52 26.3 °F 20.8 °F 1008.0 in NW 31.5 mph 31.5 mph 72 % 0.0 in 0.0 W/m2 CLR
02:57 25.7 °F 21.1 °F 1008.0 in WNW 31.5 mph 31.5 mph 76 % 0.0 in 0.0 W/m2 CLR
03:02 25.3 °F 21.2 °F 1008.0 in NW 31.5 mph 31.5 mph 78 % 0.0 in 0.0 W/m2 CLR
03:07 24.8 °F 20.1 °F 1008.4 in NW 38.6 mph 38.6 mph 75 % 0.0 in 0.0 W/m2 CLR
03:12 24.2 °F 19.4 °F 1008.4 in NW 25.9 mph 25.9 mph 75 % 0.0 in 0.0 W/m2 CLR
03:17 23.8 °F 18.7 °F 1008.7 in WNW 35.2 mph 35.2 mph 73 % 0.0 in 0.0 W/m2 CLR
03:22 23.5 °F 18.4 °F 1008.7 in WNW 20.9 mph 20.9 mph 73 % 0.0 in 0.0 W/m2 CLR
03:27 23.4 °F 18.3 °F 1009.0 in WNW 25.9 mph 25.9 mph 73 % 0.0 in 0.0 W/m2 CLR
03:32 23.3 °F 18.0 °F 1009.0 in West 27.4 mph 27.4 mph 72 % 0.0 in 0.0 W/m2 CLR
03:37 23.3 °F 17.9 °F 1009.0 in NNW 17.7 mph 17.7 mph 72 % 0.0 in 0.0 W/m2 CLR
03:42 23.2 °F 17.7 °F 1009.4 in WNW 16.7 mph 16.7 mph 71 % 0.0 in 0.0 W/m2 CLR
03:47 23.1 °F 17.3 °F 1009.4 in WNW 18.5 mph 18.5 mph 70 % 0.0 in 0.0 W/m2 CLR
03:52 23.0 °F 17.2 °F 1009.4 in NNW 14.5 mph 14.5 mph 70 % 0.0 in 0.0 W/m2 CLR
03:57 22.9 °F 17.2 °F 1009.7 in WNW 25.9 mph 25.9 mph 70 % 0.0 in 0.0 W/m2 CLR
04:02 22.9 °F 17.1 °F 1009.7 in WNW 1.9 mph   70 % 0.0 in 0.0 W/m2 CLR
04:07 22.9 °F 17.1 °F 1010.0 in Calm     70 % 0.0 in 0.0 W/m2 CLR
04:12 22.8 °F 17.1 °F 1010.0 in WNW 11.1 mph 11.1 mph 70 % 0.0 in 0.0 W/m2 CLR
04:17 22.7 °F 16.7 °F 1010.0 in NW 20.4 mph 20.4 mph 69 % 0.0 in 0.0 W/m2 CLR
04:22 22.6 °F 16.6 °F 1010.0 in West 18.5 mph 18.5 mph 69 % 0.0 in 0.0 W/m2 CLR
04:27 22.3 °F 16.1 °F 1010.0 in WNW 31.5 mph 31.5 mph 68 % 0.0 in 0.0 W/m2 CLR
04:32 22.2 °F 16.2 °F 1010.0 in WNW 18.5 mph 18.5 mph 69 % 0.0 in 0.0 W/m2 CLR
04:37 22.1 °F 15.9 °F 1010.4 in West 24.1 mph 24.1 mph 68 % 0.0 in 0.0 W/m2 CLR
04:42 22.0 °F 15.8 °F 1010.4 in WNW 24.1 mph 24.1 mph 68 % 0.0 in 0.0 W/m2 CLR
04:47 21.9 °F 15.7 °F 1010.4 in West 16.1 mph 16.1 mph 68 % 0.0 in 0.0 W/m2 CLR
04:52 21.8 °F 15.7 °F 1010.4 in WNW 18.5 mph 18.5 mph 68 % 0.0 in 0.0 W/m2 CLR
04:57 21.7 °F 15.5 °F 1010.4 in WNW 31.5 mph 31.5 mph 68 % 0.0 in 0.0 W/m2 CLR
05:02 21.5 °F 15.3 °F 1010.7 in WNW 31.5 mph 31.5 mph 68 % 0.0 in 0.0 W/m2 CLR
05:07 21.4 °F 15.2 °F 1010.7 in NW 33.3 mph 33.3 mph 68 % 0.0 in 0.0 W/m2 CLR
05:19 21.1 °F 15.0 °F 1010.7 in West 27.8 mph 27.8 mph 68 % 0.0 in 0.0 W/m2 CLR
05:22 21.1 °F 14.9 °F 1010.7 in WNW 27.8 mph 27.8 mph 68 % 0.0 in 0.0 W/m2 CLR
05:24 21.1 °F 14.9 °F 1010.7 in West 27.8 mph 27.8 mph 68 % 0.0 in 0.0 W/m2 CLR
05:25 21.1 °F 14.9 °F 1010.7 in West 18.5 mph 18.5 mph 68 % 0.0 in 0.0 W/m2 CLR
05:28 21.0 °F 14.9 °F 1010.7 in West 33.3 mph 33.3 mph 68 % 0.0 in 0.0 W/m2 CLR
05:30 20.9 °F 14.8 °F 1010.7 in West 27.8 mph 27.8 mph 68 % 0.0 in 0.0 W/m2 CLR
05:32 20.8 °F 14.7 °F 1010.7 in West 24.1 mph 24.1 mph 68 % 0.0 in 0.0 W/m2 CLR
05:37 20.7 °F 14.6 °F 1010.7 in NW 37.0 mph 37.0 mph 68 % 0.0 in 0.0 W/m2 CLR
05:42 20.6 °F 14.5 °F 1010.7 in NW 25.9 mph 25.9 mph 68 % 0.0 in 0.0 W/m2 CLR
05:43 20.6 °F 14.5 °F 1010.7 in WNW 25.9 mph 25.9 mph 68 % 0.0 in 0.0 W/m2 CLR
05:48 20.5 °F 14.4 °F 1010.7 in West 24.1 mph 24.1 mph 68 % 0.0 in 0.0 W/m2 CLR
05:53 20.4 °F 14.5 °F 1010.7 in West 27.8 mph 27.8 mph 69 % 0.0 in 0.0 W/m2 CLR
05:58 20.3 °F 14.4 °F 1010.7 in West 38.9 mph 38.9 mph 69 % 0.0 in 0.0 W/m2 CLR
06:03 20.2 °F 14.3 °F 1010.7 in WNW 40.7 mph 40.7 mph 69 % 0.0 in 0.0 W/m2 CLR
06:08 20.2 °F 14.3 °F 1011.1 in West 22.2 mph 22.2 mph 69 % 0.0 in 0.0 W/m2 CLR
06:13 20.1 °F 14.2 °F 1011.1 in West 27.8 mph 27.8 mph 69 % 0.0 in 0.0 W/m2 CLR
06:18 20.1 °F 14.2 °F 1011.1 in WNW 27.8 mph 27.8 mph 69 % 0.0 in 0.0 W/m2 CLR
06:23 20.0 °F 14.1 °F 1011.1 in West 18.5 mph 18.5 mph 69 % 0.0 in 0.0 W/m2 CLR
06:28 20.0 °F 14.1 °F 1011.1 in WSW 24.1 mph 24.1 mph 69 % 0.0 in 0.0 W/m2 CLR
06:33 19.9 °F 14.1 °F 1011.1 in WNW 27.8 mph 27.8 mph 69 % 0.0 in 0.0 W/m2 CLR
06:38 19.9 °F 14.3 °F 1011.4 in WSW 25.9 mph 25.9 mph 70 % 0.0 in 0.0 W/m2 CLR
06:43 19.8 °F 14.2 °F 1011.1 in West 22.2 mph 22.2 mph 70 % 0.0 in 0.0 W/m2 CLR
06:48 19.8 °F 14.2 °F 1011.4 in West 20.4 mph 20.4 mph 70 % 0.0 in 0.0 W/m2 CLR
06:53 19.7 °F 14.1 °F 1011.4 in WNW 31.5 mph 31.5 mph 70 % 0.0 in 0.0 W/m2 CLR
06:58 19.7 °F 14.1 °F 1011.4 in West 20.4 mph 20.4 mph 70 % 0.0 in 0.0 W/m2 CLR
07:03 19.7 °F 14.1 °F 1011.4 in West 18.5 mph 18.5 mph 70 % 0.0 in 0.0 W/m2 OVC
07:08 19.6 °F 14.2 °F 1011.4 in West 25.9 mph 25.9 mph 71 % 0.0 in 5.0 W/m2 OVC
07:13 19.6 °F 14.2 °F 1011.4 in West 29.6 mph 29.6 mph 71 % 0.0 in 7.0 W/m2 BKN
07:18 19.6 °F 14.2 °F 1011.7 in WSW 27.8 mph 27.8 mph 71 % 0.0 in 11.0 W/m2 BKN
07:23 19.6 °F 14.2 °F 1011.7 in WNW 25.9 mph 25.9 mph 71 % 0.0 in 16.0 W/m2 BKN
07:28 19.5 °F 14.1 °F 1011.7 in West 33.3 mph 33.3 mph 71 % 0.0 in 19.0 W/m2 BKN
07:33 19.4 °F 14.1 °F 1011.7 in WNW 22.2 mph 22.2 mph 71 % 0.0 in 23.0 W/m2 BKN
07:38 19.4 °F 14.0 °F 1011.7 in WNW 22.2 mph 22.2 mph 71 % 0.0 in 26.0 W/m2 BKN
07:43 19.3 °F 14.2 °F 1011.7 in WNW 33.3 mph 33.3 mph 72 % 0.0 in 30.0 W/m2 BKN
07:48 19.3 °F 14.1 °F 1011.7 in West 33.3 mph 33.3 mph 72 % 0.0 in 35.0 W/m2 BKN
07:53 19.3 °F 13.9 °F 1012.1 in WNW 22.2 mph 22.2 mph 71 % 0.0 in 39.0 W/m2 BKN
07:58 19.3 °F 13.9 °F 1012.1 in NW 22.2 mph 22.2 mph 71 % 0.0 in 74.0 W/m2 FEW
08:03 19.4 °F 14.1 °F 1012.1 in WNW 35.2 mph 35.2 mph 71 % 0.0 in 84.0 W/m2 FEW
08:08 19.5 °F 13.9 °F 1012.1 in NW 31.5 mph 31.5 mph 70 % 0.0 in 104.0 W/m2 CLR
08:13 19.6 °F 14.0 °F 1012.1 in WNW 31.5 mph 31.5 mph 70 % 0.0 in 127.0 W/m2 CLR
08:18 19.7 °F 14.1 °F 1012.1 in WNW 25.9 mph 25.9 mph 70 % 0.0 in 146.0 W/m2 CLR
08:23 19.8 °F 13.9 °F 1012.4 in NW 24.1 mph 24.1 mph 69 % 0.0 in 171.0 W/m2 CLR
08:28 19.8 °F 13.8 °F 1012.4 in NW 33.8 mph 33.8 mph 68 % 0.0 in 181.0 W/m2 CLR
08:33 19.8 °F 13.9 °F 1012.4 in NW 38.9 mph 38.9 mph 69 % 0.0 in 197.0 W/m2 CLR
08:38 19.8 °F 13.7 °F 1012.4 in WNW 35.2 mph 35.2 mph 68 % 0.0 in 214.0 W/m2 CLR
08:43 19.8 °F 13.7 °F 1012.4 in WNW 27.8 mph 27.8 mph 68 % 0.0 in 223.0 W/m2 CLR
08:48 19.8 °F 13.8 °F 1012.4 in WNW 35.2 mph 35.2 mph 68 % 0.0 in 230.0 W/m2 CLR
08:53 19.9 °F 13.6 °F 1012.4 in NW 40.7 mph 40.7 mph 67 % 0.0 in 250.0 W/m2 CLR
08:58 20.0 °F 13.7 °F 1012.4 in WNW 33.3 mph 33.3 mph 67 % 0.0 in 269.0 W/m2 CLR
09:02 20.1 °F 13.8 °F 1012.4 in NW 38.6 mph 38.6 mph 67 % 0.0 in 279.0 W/m2 CLR
09:07 20.2 °F 13.7 °F 1012.4 in NW 27.8 mph 27.8 mph 66 % 0.0 in 299.0 W/m2 CLR
09:12 20.3 °F 13.8 °F 1012.4 in NW 25.9 mph 25.9 mph 66 % 0.0 in 315.0 W/m2 CLR
09:17 20.4 °F 13.7 °F 1012.8 in WNW 38.9 mph 38.9 mph 65 % 0.0 in 330.0 W/m2 CLR
09:22 20.4 °F 13.6 °F 1012.8 in NW 38.9 mph 38.9 mph 65 % 0.0 in 345.0 W/m2 CLR
09:27 20.4 °F 13.3 °F 1012.8 in NW 42.6 mph 42.6 mph 64 % 0.0 in 362.0 W/m2 CLR
09:32 20.4 °F 13.3 °F 1012.8 in WNW 40.7 mph 40.7 mph 64 % 0.0 in 378.0 W/m2 CLR
09:37 20.6 °F 13.5 °F 1012.4 in NW 35.2 mph 35.2 mph 64 % 0.0 in 346.0 W/m2 CLR
09:42 20.8 °F 13.5 °F 1012.4 in WNW 40.7 mph 40.7 mph 63 % 0.0 in 144.0 W/m2 CLR
09:47 20.9 °F 13.6 °F 1012.8 in West 38.9 mph 38.9 mph 63 % 0.0 in 403.0 W/m2 CLR
09:52 20.8 °F 13.3 °F 1012.8 in NW 40.7 mph 40.7 mph 62 % 0.0 in 436.0 W/m2 CLR
09:57 21.2 °F 13.6 °F 1012.8 in WNW 31.5 mph 31.5 mph 62 % 0.0 in 454.0 W/m2 CLR
10:02 21.3 °F 13.4 °F 1012.8 in West 40.7 mph 40.7 mph 61 % 0.0 in 466.0 W/m2 CLR
10:07 21.3 °F 13.4 °F 1012.8 in West 25.9 mph 25.9 mph 61 % 0.0 in 478.0 W/m2 CLR
10:12 21.7 °F 13.6 °F 1012.8 in NNW 35.2 mph 35.2 mph 60 % 0.0 in 504.0 W/m2 CLR
10:17 21.5 °F 13.4 °F 1012.8 in NW 32.2 mph 32.2 mph 60 % 0.0 in 519.0 W/m2 CLR
10:22 21.7 °F 13.3 °F 1013.1 in WNW 29.6 mph 29.6 mph 59 % 0.0 in 520.0 W/m2 CLR
10:27 21.7 °F 13.3 °F 1013.1 in NW 38.9 mph 38.9 mph 59 % 0.0 in 541.0 W/m2 CLR
10:32 21.9 °F 13.3 °F 1012.8 in WNW 40.2 mph 40.2 mph 58 % 0.0 in 561.0 W/m2 CLR
10:37 22.0 °F 13.1 °F 1013.1 in WNW 42.6 mph 42.6 mph 57 % 0.0 in 577.0 W/m2 CLR
10:42 22.2 °F 13.0 °F 1013.1 in NNW 29.6 mph 29.6 mph 56 % 0.0 in 587.0 W/m2 CLR
10:47 22.4 °F 13.2 °F 1013.1 in NNW 33.3 mph 33.3 mph 56 % 0.0 in 596.0 W/m2 CLR
10:52 22.5 °F 13.0 °F 1013.1 in NW 33.8 mph 33.8 mph 55 % 0.0 in 619.0 W/m2 CLR
10:57 22.4 °F 12.9 °F 1013.1 in West 31.5 mph 31.5 mph 55 % 0.0 in 629.0 W/m2 CLR
11:02 22.5 °F 13.0 °F 1013.1 in WNW 31.5 mph 31.5 mph 55 % 0.0 in 647.0 W/m2 CLR
11:07 22.7 °F 12.9 °F 1013.1 in WNW 20.9 mph 20.9 mph 54 % 0.0 in 654.0 W/m2 CLR
11:12 23.0 °F 12.9 °F 1013.1 in West 27.8 mph 27.8 mph 53 % 0.0 in 666.0 W/m2 CLR
11:17 23.1 °F 13.0 °F 1013.1 in WNW 33.3 mph 33.3 mph 53 % 0.0 in 680.0 W/m2 CLR
11:22 23.6 °F 13.1 °F 1013.1 in NW 31.5 mph 31.5 mph 52 % 0.0 in 693.0 W/m2 CLR
11:27 23.5 °F 12.8 °F 1013.1 in NW 29.6 mph 29.6 mph 51 % 0.0 in 705.0 W/m2 CLR
11:32 23.7 °F 13.0 °F 1013.4 in WNW 45.1 mph 45.1 mph 51 % 0.0 in 715.0 W/m2 CLR
11:37 23.8 °F 12.8 °F 1013.4 in WNW 29.6 mph 29.6 mph 50 % 0.0 in 726.0 W/m2 CLR
11:42 23.9 °F 12.5 °F 1013.4 in NW 31.5 mph 31.5 mph 49 % 0.0 in 733.0 W/m2 CLR
11:47 24.1 °F 13.0 °F 1013.4 in NW 25.9 mph 25.9 mph 50 % 0.0 in 742.0 W/m2 CLR
11:52 24.0 °F 12.3 °F 1013.4 in NNW 29.6 mph 29.6 mph 48 % 0.0 in 758.0 W/m2 CLR
11:57 24.0 °F 12.6 °F 1013.4 in WNW 35.4 mph 35.4 mph 49 % 0.0 in 766.0 W/m2 CLR
12:02 23.9 °F 12.5 °F 1013.4 in WNW 29.0 mph 29.0 mph 49 % 0.0 in 777.0 W/m2 CLR
12:07 24.2 °F 11.8 °F 1013.4 in WNW 31.5 mph 31.5 mph 46 % 0.0 in 786.0 W/m2 CLR
12:12 24.2 °F 12.2 °F 1013.4 in NW 25.9 mph 25.9 mph 47 % 0.0 in 791.0 W/m2 CLR
12:17 24.3 °F 11.9 °F 1013.4 in NW 31.5 mph 31.5 mph 46 % 0.0 in 800.0 W/m2 CLR
12:22 24.4 °F 11.7 °F 1013.4 in NNW 40.7 mph 40.7 mph 45 % 0.0 in 807.0 W/m2 CLR
12:27 24.5 °F 11.8 °F 1013.4 in NNW 35.2 mph 35.2 mph 45 % 0.0 in 814.0 W/m2 CLR
12:32 24.7 °F 11.6 °F 1013.4 in WNW 31.5 mph 31.5 mph 44 % 0.0 in 828.0 W/m2 CLR
12:37 24.9 °F 11.8 °F 1013.4 in NW 25.9 mph 25.9 mph 44 % 0.0 in 833.0 W/m2 CLR
12:42 24.9 °F 11.8 °F 1013.4 in NW 30.6 mph 30.6 mph 44 % 0.0 in 842.0 W/m2 CLR
12:47 24.9 °F 11.4 °F 1013.4 in WNW 31.5 mph 31.5 mph 43 % 0.0 in 846.0 W/m2 CLR
12:52 25.3 °F 11.1 °F 1013.4 in NNW 32.2 mph 32.2 mph 41 % 0.0 in 858.0 W/m2 CLR
12:57 25.1 °F 10.2 °F 1013.8 in NNW 35.2 mph 35.2 mph 39 % 0.0 in 867.0 W/m2 CLR
13:02 25.0 °F 9.7 °F 1013.8 in NNW 35.2 mph 35.2 mph 38 % 0.0 in 870.0 W/m2 CLR
13:07 25.2 °F 10.3 °F 1013.4 in NW 37.0 mph 37.0 mph 39 % 0.0 in 874.0 W/m2 CLR
13:12 25.7 °F 9.9 °F 1013.4 in NNW 35.2 mph 35.2 mph 37 % 0.0 in 877.0 W/m2 CLR
13:17 25.8 °F 10.1 °F 1013.8 in WSW 35.2 mph 35.2 mph 37 % 0.0 in 881.0 W/m2 CLR
13:22 25.9 °F 9.3 °F 1013.4 in NNW 33.3 mph 33.3 mph 35 % 0.0 in 884.0 W/m2 CLR
13:27 26.0 °F 9.3 °F 1013.4 in North 20.4 mph 20.4 mph 35 % 0.0 in 891.0 W/m2 CLR
13:32 26.1 °F 8.9 °F 1013.4 in WNW 25.9 mph 25.9 mph 34 % 0.0 in 891.0 W/m2 CLR
13:37 26.4 °F 8.9 °F 1013.4 in NNW 27.8 mph 27.8 mph 33 % 0.0 in 896.0 W/m2 CLR
13:42 26.3 °F 8.7 °F 1013.4 in NW 38.9 mph 38.9 mph 33 % 0.0 in 902.0 W/m2 CLR
13:47 26.4 °F 8.4 °F 1013.4 in North 33.3 mph 33.3 mph 32 % 0.0 in 904.0 W/m2 CLR
13:52 26.6 °F 8.6 °F 1013.4 in NW 40.7 mph 40.7 mph 32 % 0.0 in 905.0 W/m2 CLR
13:57 26.6 °F 8.6 °F 1013.1 in WNW 33.8 mph 33.8 mph 32 % 0.0 in 907.0 W/m2 CLR
14:02 26.8 °F 8.7 °F 1013.1 in NW 42.6 mph 42.6 mph 32 % 0.0 in 907.0 W/m2 CLR
14:07 26.9 °F 8.8 °F 1013.1 in NNW 31.5 mph 31.5 mph 32 % 0.0 in 905.0 W/m2 CLR
14:12 26.8 °F 9.2 °F 1013.1 in NNW 29.6 mph 29.6 mph 33 % 0.0 in 905.0 W/m2 CLR
14:17 26.9 °F 9.3 °F 1013.1 in NW 41.8 mph 41.8 mph 33 % 0.0 in 905.0 W/m2 CLR
14:22 26.9 °F 8.8 °F 1013.1 in NNW 31.5 mph 31.5 mph 32 % 0.0 in 907.0 W/m2 CLR
14:27 26.9 °F 8.8 °F 1013.1 in WNW 37.0 mph 37.0 mph 32 % 0.0 in 909.0 W/m2 CLR
14:32 26.8 °F 8.7 °F 1013.1 in NNW 40.7 mph 40.7 mph 32 % 0.0 in 904.0 W/m2 CLR
14:37 26.6 °F 8.6 °F 1013.1 in WNW 38.9 mph 38.9 mph 32 % 0.0 in 900.0 W/m2 CLR
14:42 26.8 °F 9.2 °F 1013.1 in NW 31.5 mph 31.5 mph 33 % 0.0 in 898.0 W/m2 CLR
14:47 27.1 °F 8.5 °F 1013.1 in NW 35.4 mph 35.4 mph 31 % 0.0 in 900.0 W/m2 CLR
14:52 27.0 °F 8.4 °F 1013.1 in NW 35.2 mph 35.2 mph 31 % 0.0 in 900.0 W/m2 CLR
14:57 27.0 °F 8.4 °F 1013.1 in NNW 27.8 mph 27.8 mph 31 % 0.0 in 902.0 W/m2 CLR
15:02 27.2 °F 9.1 °F 1013.1 in WNW 27.8 mph 27.8 mph 32 % 0.0 in 896.0 W/m2 CLR
15:07 27.5 °F 8.8 °F 1013.1 in NW 33.3 mph 33.3 mph 31 % 0.0 in 902.0 W/m2 CLR
15:12 27.4 °F 8.8 °F 1013.1 in NNW 35.2 mph 35.2 mph 31 % 0.0 in 914.0 W/m2 CLR
15:17 27.4 °F 9.2 °F 1013.1 in North 31.5 mph 31.5 mph 32 % 0.0 in 928.0 W/m2 CLR
15:22 27.8 °F 9.2 °F 1013.1 in WNW 37.0 mph 37.0 mph 31 % 0.0 in 953.0 W/m2 CLR
15:27 27.6 °F 8.9 °F 1013.1 in NNW 32.2 mph 32.2 mph 31 % 0.0 in 791.0 W/m2 CLR
15:33 27.1 °F 9.0 °F 1013.1 in North 31.5 mph 31.5 mph 32 % 0.0 in 714.0 W/m2 CLR
15:38 27.0 °F 8.9 °F 1013.1 in North 38.6 mph 38.6 mph 32 % 0.0 in 724.0 W/m2 CLR
15:43 27.1 °F 8.4 °F 1013.1 in North 31.5 mph 31.5 mph 31 % 0.0 in 838.0 W/m2 CLR
15:48 27.5 °F 8.8 °F 1013.1 in NNW 30.6 mph 30.6 mph 31 % 0.0 in 840.0 W/m2 CLR
15:53 27.4 °F 9.2 °F 1012.8 in NNW 27.8 mph 27.8 mph 32 % 0.0 in 828.0 W/m2 CLR
15:58 27.6 °F 8.9 °F 1013.1 in WNW 31.5 mph 31.5 mph 31 % 0.0 in 814.0 W/m2 CLR
16:03 27.7 °F 9.5 °F 1013.1 in NNW 37.0 mph 37.0 mph 32 % 0.0 in 803.0 W/m2 CLR
16:08 27.7 °F 9.5 °F 1013.1 in North 35.2 mph 35.2 mph 32 % 0.0 in 796.0 W/m2 CLR
16:13 27.5 °F 9.3 °F 1013.1 in NW 31.5 mph 31.5 mph 32 % 0.0 in 788.0 W/m2 CLR
16:18 27.5 °F 8.8 °F 1013.1 in NW 38.9 mph 38.9 mph 31 % 0.0 in 780.0 W/m2 CLR
16:23 27.6 °F 8.9 °F 1012.8 in NW 31.5 mph 31.5 mph 31 % 0.0 in 772.0 W/m2 CLR
16:28 27.7 °F 8.5 °F 1012.8 in NW 31.5 mph 31.5 mph 30 % 0.0 in 761.0 W/m2 CLR
16:33 27.9 °F 9.2 °F 1013.1 in WNW 33.3 mph 33.3 mph 31 % 0.0 in 749.0 W/m2 CLR
16:38 27.7 °F 9.1 °F 1013.1 in NNW 33.3 mph 33.3 mph 31 % 0.0 in 738.0 W/m2 CLR
16:43 27.6 °F 8.9 °F 1013.1 in WNW 31.5 mph 31.5 mph 31 % 0.0 in 724.0 W/m2 CLR
16:48 27.7 °F 8.6 °F 1013.1 in NW 29.6 mph 29.6 mph 30 % 0.0 in 712.0 W/m2 CLR
16:53 27.6 °F 8.9 °F 1013.1 in NW 31.5 mph 31.5 mph 31 % 0.0 in 700.0 W/m2 CLR
16:58 27.6 °F 8.9 °F 1013.1 in WNW 37.0 mph 37.0 mph 31 % 0.0 in 691.0 W/m2 CLR
17:03 27.6 °F 8.4 °F 1013.1 in WNW 33.3 mph 33.3 mph 30 % 0.0 in 677.0 W/m2 CLR
17:08 27.9 °F 8.7 °F 1013.1 in NW 33.8 mph 33.8 mph 30 % 0.0 in 661.0 W/m2 CLR
17:13 28.0 °F 8.8 °F 1013.1 in NW 35.4 mph 35.4 mph 30 % 0.0 in 647.0 W/m2 CLR
17:18 27.5 °F 8.8 °F 1013.4 in NNW 30.6 mph 30.6 mph 31 % 0.0 in 633.0 W/m2 CLR
17:23 27.6 °F 8.9 °F 1013.4 in North 31.5 mph 31.5 mph 31 % 0.0 in 619.0 W/m2 CLR
17:28 27.8 °F 9.1 °F 1013.1 in NNW 29.6 mph 29.6 mph 31 % 0.0 in 606.0 W/m2 CLR
17:33 27.8 °F 8.6 °F 1013.1 in NW 40.7 mph 40.7 mph 30 % 0.0 in 592.0 W/m2 CLR
17:38 27.4 °F 8.8 °F 1013.4 in NNW 37.0 mph 37.0 mph 31 % 0.0 in 584.0 W/m2 CLR
17:43 27.6 °F 8.9 °F 1013.4 in NW 35.4 mph 35.4 mph 31 % 0.0 in 563.0 W/m2 CLR
17:48 27.4 °F 9.3 °F 1013.4 in NNW 38.9 mph 38.9 mph 32 % 0.0 in 545.0 W/m2 CLR
17:53 27.4 °F 8.8 °F 1013.1 in NNW 37.0 mph 37.0 mph 31 % 0.0 in 531.0 W/m2 CLR
17:58 27.6 °F 8.9 °F 1013.1 in West 31.5 mph 31.5 mph 31 % 0.0 in 519.0 W/m2 CLR
18:03 27.4 °F 8.8 °F 1013.4 in NNW 42.6 mph 42.6 mph 31 % 0.0 in 497.0 W/m2 CLR
18:08 27.3 °F 8.7 °F 1013.4 in NW 40.7 mph 40.7 mph 31 % 0.0 in 485.0 W/m2 CLR
18:13 27.3 °F 8.7 °F 1013.4 in WNW 31.5 mph 31.5 mph 31 % 0.0 in 473.0 W/m2 CLR
18:19 27.3 °F 8.7 °F 1013.4 in NW 31.5 mph 31.5 mph 31 % 0.0 in 457.0 W/m2 CLR
18:24 27.2 °F 8.1 °F 1013.4 in NW 35.2 mph 35.2 mph 30 % 0.0 in 445.0 W/m2 CLR
18:29 27.3 °F 8.2 °F 1013.4 in WNW 32.2 mph 32.2 mph 30 % 0.0 in 427.0 W/m2 CLR
18:34 27.4 °F 8.8 °F 1013.4 in NW 27.8 mph 27.8 mph 31 % 0.0 in 408.0 W/m2 CLR
18:39 27.3 °F 8.2 °F 1013.4 in NNW 40.2 mph 40.2 mph 30 % 0.0 in 394.0 W/m2 CLR
18:44 27.2 °F 7.6 °F 1013.4 in NNW 24.1 mph 24.1 mph 29 % 0.0 in 376.0 W/m2 CLR
18:49 27.2 °F 8.1 °F 1013.4 in NW 18.5 mph 18.5 mph 30 % 0.0 in 359.0 W/m2 CLR
18:54 27.3 °F 7.7 °F 1013.4 in NNW 30.6 mph 30.6 mph 29 % 0.0 in 343.0 W/m2 CLR
18:59 26.9 °F 7.9 °F 1013.8 in NNW 29.6 mph 29.6 mph 30 % 0.0 in 327.0 W/m2 CLR
19:04 27.0 °F 7.9 °F 1013.8 in NNW 22.5 mph 22.5 mph 30 % 0.0 in 304.0 W/m2 CLR
19:09 26.8 °F 8.3 °F 1013.8 in NNW 27.8 mph 27.8 mph 31 % 0.0 in 292.0 W/m2 CLR
19:14 26.7 °F 8.1 °F 1013.8 in North 16.7 mph 16.7 mph 31 % 0.0 in 281.0 W/m2 CLR
19:19 26.9 °F 8.4 °F 1013.8 in NNW 14.8 mph 14.8 mph 31 % 0.0 in 257.0 W/m2 CLR
19:24 27.1 °F 7.5 °F 1013.8 in NNW 22.2 mph 22.2 mph 29 % 0.0 in 237.0 W/m2 CLR
19:29 26.8 °F 7.3 °F 1013.8 in NNW 22.2 mph 22.2 mph 29 % 0.0 in 220.0 W/m2 CLR
19:34 26.6 °F 6.6 °F 1014.1 in NW 18.5 mph 18.5 mph 28 % 0.0 in 192.0 W/m2 CLR
19:39 26.6 °F 6.6 °F 1014.1 in NW 29.6 mph 29.6 mph 28 % 0.0 in 183.0 W/m2 CLR
19:44 26.5 °F 7.0 °F 1014.1 in NW 27.8 mph 27.8 mph 29 % 0.0 in 163.0 W/m2 CLR
19:49 26.5 °F 7.0 °F 1014.1 in Calm     29 % 0.0 in 148.0 W/m2 CLR
19:54 26.5 °F 7.0 °F 1014.1 in North 18.5 mph 18.5 mph 29 % 0.0 in 134.0 W/m2 CLR
19:59 26.3 °F 6.3 °F 1014.1 in NW 27.8 mph 27.8 mph 28 % 0.0 in 120.0 W/m2 CLR
20:04 26.2 °F 6.8 °F 1014.1 in NW 24.1 mph 24.1 mph 29 % 0.0 in 107.0 W/m2 CLR
20:09 26.1 °F 6.6 °F 1014.1 in NW 16.7 mph 16.7 mph 29 % 0.0 in 90.0 W/m2 CLR
20:14 25.8 °F 6.4 °F 1014.1 in NW 25.9 mph 25.9 mph 29 % 0.0 in 74.0 W/m2 FEW
20:19 25.7 °F 6.3 °F 1014.1 in NW 24.1 mph 24.1 mph 29 % 0.0 in 58.0 W/m2 SCT
20:24 25.4 °F 7.1 °F 1014.4 in NW 24.1 mph 24.1 mph 31 % 0.0 in 49.0 W/m2 SCT
20:29 25.3 °F 7.0 °F 1014.1 in NW 18.5 mph 18.5 mph 31 % 0.0 in 39.0 W/m2 BKN
20:34 25.2 °F 7.3 °F 1014.1 in NNW 20.4 mph 20.4 mph 32 % 0.0 in 30.0 W/m2 BKN
20:39 25.1 °F 7.2 °F 1014.1 in NNW 19.3 mph 19.3 mph 32 % 0.0 in 25.0 W/m2 BKN
20:44 24.9 °F 7.5 °F 1014.4 in NW 29.6 mph 29.6 mph 33 % 0.0 in 19.0 W/m2 BKN
20:49 24.6 °F 7.7 °F 1014.4 in NW 20.4 mph 20.4 mph 34 % 0.0 in 16.0 W/m2 BKN
20:54 24.4 °F 7.9 °F 1014.4 in NW 24.1 mph 24.1 mph 35 % 0.0 in 12.0 W/m2 BKN
20:59 24.3 °F 8.2 °F 1014.4 in NNW 18.5 mph 18.5 mph 36 % 0.0 in 11.0 W/m2 BKN
21:04 24.1 °F 8.4 °F 1014.4 in NW 18.5 mph 18.5 mph 37 % 0.0 in 7.0 W/m2 BKN
21:09 23.9 °F 8.3 °F 1014.8 in WNW 18.5 mph 18.5 mph 37 % 0.0 in 5.0 W/m2 OVC
21:14 23.8 °F 8.2 °F 1014.8 in NW 18.5 mph 18.5 mph 37 % 0.0 in 0.0 W/m2 OVC
21:19 23.7 °F 8.1 °F 1014.8 in NW 18.5 mph 18.5 mph 37 % 0.0 in 0.0 W/m2 CLR
21:24 23.6 °F 8.0 °F 1014.8 in NW 20.4 mph 20.4 mph 37 % 0.0 in 0.0 W/m2 CLR
21:29 23.4 °F 8.3 °F 1014.8 in WNW 18.5 mph 18.5 mph 38 % 0.0 in 0.0 W/m2 CLR
21:34 23.3 °F 8.2 °F 1015.1 in NW 24.1 mph 24.1 mph 38 % 0.0 in 0.0 W/m2 CLR
21:39 23.2 °F 8.4 °F 1015.1 in NW 22.5 mph 22.5 mph 39 % 0.0 in 0.0 W/m2 CLR
21:45 23.2 °F 8.4 °F 1015.1 in NW 20.4 mph 20.9 mph 39 % 0.0 in 0.0 W/m2 CLR
21:50 23.1 °F 8.4 °F 1015.1 in NW 22.5 mph 23.8 mph 39 % 0.0 in 0.0 W/m2 CLR
21:55 23.0 °F 8.7 °F 1015.5 in WNW 24.1 mph 24.1 mph 40 % 0.0 in 0.0 W/m2 CLR
22:00 22.9 °F 8.6 °F 1015.5 in WNW 20.4 mph 20.4 mph 40 % 0.0 in 0.0 W/m2 CLR
22:05 22.8 °F 8.9 °F 1015.8 in NW 18.5 mph 18.5 mph 41 % 0.0 in 0.0 W/m2 CLR
22:10 22.7 °F 8.7 °F 1015.8 in WNW 14.8 mph 14.8 mph 41 % 0.0 in 0.0 W/m2 CLR
22:11 22.6 °F 8.7 °F 1015.8 in WNW 16.7 mph 16.7 mph 41 % 0.0 in 0.0 W/m2 CLR
22:16 22.5 °F 8.9 °F 1015.8 in NW 22.2 mph 22.2 mph 42 % 0.0 in 0.0 W/m2 CLR
22:21 22.4 °F 9.2 °F 1015.8 in NW 22.2 mph 22.2 mph 43 % 0.0 in 0.0 W/m2 CLR
22:26 22.3 °F 9.1 °F 1015.8 in WNW 18.5 mph 18.5 mph 43 % 0.0 in 0.0 W/m2 CLR
22:31 22.2 °F 9.0 °F 1016.1 in West 16.7 mph 16.7 mph 43 % 0.0 in 0.0 W/m2 CLR
22:36 22.1 °F 8.9 °F 1016.1 in West 22.2 mph 22.2 mph 43 % 0.0 in 0.0 W/m2 CLR
22:41 22.1 °F 8.9 °F 1016.1 in West 22.2 mph 22.2 mph 43 % 0.0 in 0.0 W/m2 CLR
22:46 21.9 °F 8.8 °F 1016.1 in WNW 16.7 mph 16.7 mph 43 % 0.0 in 0.0 W/m2 CLR
22:51 21.9 °F 8.7 °F 1016.1 in WNW 22.2 mph 22.2 mph 43 % 0.0 in 0.0 W/m2 CLR
22:56 21.9 °F 8.7 °F 1016.1 in WNW 22.2 mph 22.2 mph 43 % 0.0 in 0.0 W/m2 CLR
23:01 21.8 °F 8.7 °F 1016.1 in WNW 19.3 mph 19.3 mph 43 % 0.0 in 0.0 W/m2 CLR
23:06 21.7 °F 8.9 °F 1016.1 in WNW 24.1 mph 24.1 mph 44 % 0.0 in 0.0 W/m2 CLR
23:11 21.6 °F 9.1 °F 1016.5 in WNW 18.5 mph 18.5 mph 45 % 0.0 in 0.0 W/m2 CLR
23:16 21.4 °F 8.9 °F 1016.5 in West 16.7 mph 16.7 mph 45 % 0.0 in 0.0 W/m2 CLR
23:21 21.3 °F 8.9 °F 1016.5 in West 16.7 mph 16.7 mph 45 % 0.0 in 0.0 W/m2 CLR
23:26 21.2 °F 9.1 °F 1016.5 in West 18.5 mph 18.5 mph 46 % 0.0 in 0.0 W/m2 CLR
23:31 21.2 °F 9.1 °F 1016.5 in West 14.8 mph 14.8 mph 46 % 0.0 in 0.0 W/m2 CLR
23:36 21.1 °F 9.1 °F 1016.8 in West 8.0 mph 8.0 mph 46 % 0.0 in 0.0 W/m2 CLR
23:41 21.0 °F 8.9 °F 1016.8 in WSW 13.0 mph 13.0 mph 46 % 0.0 in 0.0 W/m2 CLR
23:46 20.9 °F 8.9 °F 1016.8 in West 14.8 mph 14.8 mph 46 % 0.0 in 0.0 W/m2 CLR
23:51 20.9 °F 8.8 °F 1016.8 in WNW 18.5 mph 18.5 mph 46 % 0.0 in 0.0 W/m2 CLR
23:56 20.9 °F 8.8 °F 1016.8 in WNW 13.0 mph 13.0 mph 46 % 0.0 in 0.0 W/m2 CLR
Lo Temps de Massalio
Compliments of Weather Underground - 1.25 mb